Airport View

Enter AWOS ICAO identifier for current METAR.

ex. KFNL

KUCY 220055Z AUTO 05010KT 4SM BR SCT008 BKN032 OVC070 06/05 A3035 RMK A01 P0010

22 Feb 2018 01:10

Frequency: 135.325

Phone: 731-885-9161

Other Area AWOS: KPHT - KM25 - KDYR - KHZD

TAF AMD KPAH 220005Z 2200/2224 06010KT 6SM -RA BR OVC008 FM220200 06013KT 4SM -RA BR OVC006 FM220800 06008KT 4SM BR OVC005 FM221500 05007KT P6SM OVC008